createdAt,value
2019-03-31T00:01:52.129Z,101266.84
2019-03-31T00:04:21.757Z,101264.17
2019-03-31T00:06:51.284Z,101263.73
2019-03-31T00:09:20.911Z,101265.50
2019-03-31T00:11:50.511Z,101261.48
2019-03-31T00:14:20.140Z,101265.90
2019-03-31T00:16:52.263Z,101268.07
2019-03-31T00:19:21.090Z,101270.29
2019-03-31T00:21:50.699Z,101272.05
2019-03-31T00:24:20.325Z,101274.23
2019-03-31T00:26:49.934Z,101279.55
2019-03-31T00:29:19.570Z,101275.53
2019-03-31T00:31:49.174Z,101269.73
2019-03-31T00:34:18.787Z,101276.80
2019-03-31T00:36:48.387Z,101273.25
2019-03-31T00:39:17.951Z,101271.03
2019-03-31T00:41:47.556Z,101280.77
2019-03-31T00:44:17.182Z,101282.96
2019-03-31T00:46:46.738Z,101282.06
2019-03-31T00:49:16.292Z,101290.48
2019-03-31T00:51:45.822Z,101290.47
2019-03-31T00:54:15.373Z,101285.14
2019-03-31T00:56:44.830Z,101287.79
2019-03-31T00:59:14.464Z,101291.75
2019-03-31T01:01:48.865Z,101289.97
2019-03-31T01:04:22.707Z,101299.68
2019-03-31T01:06:53.888Z,101299.23
2019-03-31T01:09:27.106Z,101296.10
2019-03-31T01:11:56.795Z,101303.63
2019-03-31T01:14:26.870Z,101301.78
2019-03-31T01:16:56.753Z,101304.41
2019-03-31T01:19:26.668Z,101301.77
2019-03-31T01:21:56.284Z,101295.98
2019-03-31T01:24:25.905Z,101300.84
2019-03-31T01:26:55.603Z,101303.03
2019-03-31T01:29:25.225Z,101310.52
2019-03-31T01:31:56.135Z,101304.30
2019-03-31T01:34:26.232Z,101316.24
2019-03-31T01:36:55.952Z,101320.19
2019-03-31T01:39:27.574Z,101317.02
2019-03-31T01:41:57.094Z,101320.52
2019-03-31T01:44:26.719Z,101317.78
2019-03-31T01:46:56.335Z,101319.90
2019-03-31T01:49:25.970Z,101318.98
2019-03-31T01:51:55.563Z,101315.39
2019-03-31T01:54:25.186Z,101326.38
2019-03-31T01:56:54.785Z,101317.06
2019-03-31T01:59:24.407Z,101318.80
2019-03-31T02:02:04.011Z,101318.75
2019-03-31T02:04:25.358Z,101322.24
2019-03-31T02:06:54.955Z,101324.00
2019-03-31T02:09:24.553Z,101338.55
2019-03-31T02:11:54.183Z,101327.47
2019-03-31T02:14:23.781Z,101334.06
2019-03-31T02:16:53.344Z,101336.66
2019-03-31T02:19:22.941Z,101333.54
2019-03-31T02:21:52.562Z,101335.72
2019-03-31T02:24:22.165Z,101344.09
2019-03-31T02:26:51.802Z,101336.08
2019-03-31T02:29:21.404Z,101336.06
2019-03-31T02:31:51.029Z,101336.00
2019-03-31T02:34:20.645Z,101338.16
2019-03-31T02:36:50.270Z,101346.53
2019-03-31T02:39:19.867Z,101343.83
2019-03-31T02:41:49.536Z,101345.58
2019-03-31T02:44:19.208Z,101341.58
2019-03-31T02:46:48.866Z,101334.91
2019-03-31T02:49:18.472Z,101336.65
2019-03-31T02:51:48.094Z,101343.22
2019-03-31T02:54:17.700Z,101339.23
2019-03-31T02:56:47.920Z,101337.88
2019-03-31T02:59:20.047Z,101354.61
2019-03-31T03:01:51.364Z,101345.29
2019-03-31T03:04:22.810Z,101352.77
2019-03-31T03:06:54.401Z,101350.52
2019-03-31T03:09:26.585Z,101345.14
2019-03-31T03:11:58.815Z,101351.30
2019-03-31T03:14:30.156Z,101346.86
2019-03-31T03:16:59.803Z,101347.28
2019-03-31T03:19:29.396Z,101352.08
2019-03-31T03:21:59.032Z,101345.87
2019-03-31T03:24:28.654Z,101351.56
2019-03-31T03:26:58.193Z,101351.53
2019-03-31T03:29:27.730Z,101358.54
2019-03-31T03:31:57.371Z,101354.95
2019-03-31T03:34:26.970Z,101359.34
2019-03-31T03:36:56.611Z,101351.34
2019-03-31T03:39:26.218Z,101351.30
2019-03-31T03:41:55.847Z,101351.20
2019-03-31T03:44:25.454Z,101356.44
2019-03-31T03:46:55.103Z,101362.12
2019-03-31T03:49:24.705Z,101364.73
2019-03-31T03:51:54.333Z,101367.80
2019-03-31T03:54:23.940Z,101371.73
2019-03-31T03:56:53.495Z,101375.23
2019-03-31T03:59:23.103Z,101379.17
2019-03-31T04:01:52.729Z,101375.15
2019-03-31T04:04:22.341Z,101373.35
2019-03-31T04:06:51.973Z,101378.65
2019-03-31T04:09:21.584Z,101379.47
2019-03-31T04:11:51.213Z,101380.77
2019-03-31T04:14:20.892Z,101364.39
2019-03-31T04:16:50.552Z,101374.91
2019-03-31T04:19:20.152Z,101381.94
2019-03-31T04:21:49.785Z,101384.52
2019-03-31T04:24:19.324Z,101388.45
2019-03-31T04:26:49.025Z,101389.69
2019-03-31T04:29:18.625Z,101394.94
2019-03-31T04:31:48.246Z,101392.30
2019-03-31T04:34:17.771Z,101398.44
2019-03-31T04:36:47.402Z,101397.08
2019-03-31T04:39:17.026Z,101404.14
2019-03-31T04:41:46.653Z,101404.58
2019-03-31T04:44:16.247Z,101408.95
2019-03-31T04:46:45.899Z,101419.53
2019-03-31T04:49:15.497Z,101425.27
2019-03-31T04:51:45.124Z,101419.50
2019-03-31T04:54:14.733Z,101426.11
2019-03-31T04:56:44.364Z,101426.08
2019-03-31T04:59:13.908Z,101431.34
2019-03-31T05:01:43.456Z,101433.53
2019-03-31T05:04:12.988Z,101440.16
2019-03-31T05:06:42.646Z,101450.73
2019-03-31T05:09:12.264Z,101450.29
2019-03-31T05:11:41.884Z,101459.11
2019-03-31T05:14:11.488Z,101456.87
2019-03-31T05:16:41.041Z,101462.59
2019-03-31T05:19:10.635Z,101468.73
2019-03-31T05:21:40.266Z,101470.53
2019-03-31T05:24:09.870Z,101480.67
2019-03-31T05:26:39.512Z,101485.56
2019-03-31T05:29:09.045Z,101488.23
2019-03-31T05:31:38.677Z,101494.00
2019-03-31T05:34:18.957Z,101500.66
2019-03-31T05:36:39.629Z,101503.73
2019-03-31T05:39:09.242Z,101507.33
2019-03-31T05:41:38.872Z,101511.30
2019-03-31T05:44:08.475Z,101512.19
2019-03-31T05:46:38.064Z,101527.65
2019-03-31T05:49:07.740Z,101530.73
2019-03-31T05:51:37.368Z,101529.01
2019-03-31T05:54:06.968Z,101532.46
2019-03-31T05:56:36.603Z,101543.05
2019-03-31T05:59:06.225Z,101550.47
2019-03-31T06:01:35.852Z,101556.13
2019-03-31T06:04:05.456Z,101561.34
2019-03-31T06:06:37.035Z,101558.18
2019-03-31T06:09:07.528Z,101567.36
2019-03-31T06:11:37.189Z,101569.97
2019-03-31T06:14:06.830Z,101573.94
2019-03-31T06:16:36.462Z,101574.41
2019-03-31T06:19:06.093Z,101575.19
2019-03-31T06:21:35.782Z,101587.96
2019-03-31T06:24:05.361Z,101585.77
2019-03-31T06:26:35.006Z,101593.94
2019-03-31T06:29:04.786Z,101588.97
2019-03-31T06:31:34.506Z,101591.97
2019-03-31T06:34:04.256Z,101599.86
2019-03-31T06:36:33.891Z,101600.75
2019-03-31T06:39:05.518Z,101609.59
2019-03-31T06:41:35.174Z,101613.61
2019-03-31T06:44:04.776Z,101613.17
2019-03-31T06:46:34.414Z,101608.40
2019-03-31T06:49:04.046Z,101619.89
2019-03-31T06:51:33.654Z,101616.81
2019-03-31T06:54:03.354Z,101623.91
2019-03-31T06:56:32.961Z,101628.30
2019-03-31T06:59:02.607Z,101629.64
2019-03-31T07:01:32.222Z,101631.00
2019-03-31T07:04:01.874Z,101640.89
2019-03-31T07:06:31.390Z,101643.22
2019-03-31T07:09:00.872Z,101645.45
2019-03-31T07:11:30.402Z,101640.05
2019-03-31T07:14:00.021Z,101630.31
2019-03-31T07:16:29.582Z,101640.05
2019-03-31T07:18:59.133Z,101639.61
2019-03-31T07:21:28.744Z,101643.58
2019-03-31T07:23:58.297Z,101635.69
2019-03-31T07:26:27.913Z,101645.02
2019-03-31T07:28:57.541Z,101646.87
2019-03-31T07:31:27.151Z,101646.54
2019-03-31T07:33:56.701Z,101655.47
2019-03-31T07:36:26.308Z,101663.05
2019-03-31T07:38:56.121Z,101666.69
2019-03-31T07:41:25.769Z,101674.70
2019-03-31T07:43:55.909Z,101670.34
2019-03-31T07:46:25.540Z,101673.47
2019-03-31T07:48:55.169Z,101677.98
2019-03-31T07:51:24.783Z,101675.38
2019-03-31T07:53:54.440Z,101679.87
2019-03-31T07:56:24.055Z,101683.88
2019-03-31T07:58:53.748Z,101686.20
2019-03-31T08:01:23.435Z,101682.78
2019-03-31T08:03:53.065Z,101684.73
2019-03-31T08:06:22.673Z,101687.48
2019-03-31T08:08:53.515Z,101698.70
2019-03-31T08:11:23.276Z,101695.72
2019-03-31T08:13:55.263Z,101701.59
2019-03-31T08:16:24.303Z,101699.94
2019-03-31T08:18:53.887Z,101699.19
2019-03-31T08:21:23.772Z,101700.63
2019-03-31T08:23:53.413Z,101698.95
2019-03-31T08:26:23.022Z,101700.89
2019-03-31T08:28:52.654Z,101704.94
2019-03-31T08:31:22.256Z,101707.72
2019-03-31T08:33:51.893Z,101703.81
2019-03-31T08:36:21.509Z,101710.53
2019-03-31T08:38:51.140Z,101707.59
2019-03-31T08:41:20.754Z,101711.29
2019-03-31T08:43:50.510Z,101716.72
2019-03-31T08:46:20.203Z,101714.25
2019-03-31T08:48:49.859Z,101724.16
2019-03-31T08:51:19.556Z,101725.71
2019-03-31T08:53:49.245Z,101726.45
2019-03-31T08:56:18.867Z,101727.64
2019-03-31T08:58:48.426Z,101720.42
2019-03-31T09:01:18.428Z,101729.64
2019-03-31T09:03:48.110Z,101731.10
2019-03-31T09:06:17.742Z,101738.34
2019-03-31T09:08:47.377Z,101742.88
2019-03-31T09:11:17.041Z,101735.02
2019-03-31T09:13:46.755Z,101739.95
2019-03-31T09:16:16.383Z,101739.55
2019-03-31T09:18:46.049Z,101744.13
2019-03-31T09:21:15.706Z,101737.70
2019-03-31T09:23:45.465Z,101740.62
2019-03-31T09:26:15.159Z,101731.50
2019-03-31T09:28:44.916Z,101725.94
2019-03-31T09:31:14.540Z,101734.92
2019-03-31T09:33:44.564Z,101729.67
2019-03-31T09:36:16.461Z,101736.34
2019-03-31T09:38:45.505Z,101725.73
2019-03-31T09:41:15.251Z,101740.86
2019-03-31T09:43:45.019Z,101734.23
2019-03-31T09:46:14.699Z,101737.80
2019-03-31T09:48:44.355Z,101734.25
2019-03-31T09:51:13.974Z,101738.72
2019-03-31T09:53:43.735Z,101739.18
2019-03-31T09:56:15.201Z,101743.23
2019-03-31T09:58:44.813Z,101746.73
2019-03-31T10:01:14.740Z,101742.28
2019-03-31T10:03:44.543Z,101751.12
2019-03-31T10:06:14.186Z,101749.77
2019-03-31T10:08:44.015Z,101744.84
2019-03-31T10:11:13.619Z,101751.05
2019-03-31T10:13:43.180Z,101745.27
2019-03-31T10:16:12.870Z,101748.39
2019-03-31T10:18:42.418Z,101753.30
2019-03-31T10:21:12.034Z,101758.20
2019-03-31T10:23:41.584Z,101754.25
2019-03-31T10:26:11.245Z,101751.53
2019-03-31T10:28:40.941Z,101746.18
2019-03-31T10:31:10.542Z,101754.60
2019-03-31T10:33:40.098Z,101755.91
2019-03-31T10:36:12.739Z,101754.59
2019-03-31T10:38:41.055Z,101759.91
2019-03-31T10:41:10.656Z,101760.37
2019-03-31T10:43:40.279Z,101757.28
2019-03-31T10:46:09.912Z,101756.83
2019-03-31T10:48:39.539Z,101756.41
2019-03-31T10:51:09.155Z,101760.86
2019-03-31T10:53:38.839Z,101762.23
2019-03-31T10:56:08.448Z,101760.02
2019-03-31T10:58:37.999Z,101761.84
2019-03-31T11:01:07.611Z,101759.21
2019-03-31T11:03:37.247Z,101758.78
2019-03-31T11:06:06.845Z,101760.14
2019-03-31T11:08:36.378Z,101759.25
2019-03-31T11:11:06.002Z,101754.39
2019-03-31T11:13:35.541Z,101757.98
2019-03-31T11:16:05.165Z,101761.58
2019-03-31T11:18:34.767Z,101765.61
2019-03-31T11:21:10.598Z,101767.38
2019-03-31T11:23:40.212Z,101776.29
2019-03-31T11:26:09.843Z,101771.84
2019-03-31T11:28:39.481Z,101778.05
2019-03-31T11:31:09.102Z,101774.50
2019-03-31T11:33:38.697Z,101779.82
2019-03-31T11:36:08.319Z,101781.12
2019-03-31T11:38:37.845Z,101781.53
2019-03-31T11:41:07.469Z,101783.30
2019-03-31T11:43:37.080Z,101785.97
2019-03-31T11:46:06.740Z,101779.73
2019-03-31T11:48:36.357Z,101789.98
2019-03-31T11:51:05.983Z,101785.55
2019-03-31T11:53:35.584Z,101783.33
2019-03-31T11:56:05.390Z,101781.12
2019-03-31T11:58:34.993Z,101782.94
2019-03-31T12:01:04.623Z,101791.41
2019-03-31T12:03:34.229Z,101791.40
2019-03-31T12:06:03.872Z,101793.19
2019-03-31T12:08:33.471Z,101790.08
2019-03-31T12:11:03.188Z,101789.64
2019-03-31T12:13:32.737Z,101792.77
2019-03-31T12:16:02.361Z,101795.03
2019-03-31T12:18:31.971Z,101798.15
2019-03-31T12:21:01.604Z,101800.38
2019-03-31T12:23:31.212Z,101806.19
2019-03-31T12:26:00.843Z,101805.76
2019-03-31T12:28:30.452Z,101804.86
2019-03-31T12:31:00.000Z,101796.88
2019-03-31T12:33:29.615Z,101793.78
2019-03-31T12:35:59.087Z,101792.47
2019-03-31T12:38:28.614Z,101789.34
2019-03-31T12:40:58.236Z,101793.78
2019-03-31T12:43:27.766Z,101793.34
2019-03-31T12:45:57.413Z,101783.53
2019-03-31T12:48:27.011Z,101791.09
2019-03-31T12:50:56.726Z,101782.66
2019-03-31T12:53:26.328Z,101775.05
2019-03-31T12:56:00.319Z,101772.84
2019-03-31T12:58:27.206Z,101769.26
2019-03-31T13:00:56.840Z,101771.05
2019-03-31T13:03:26.442Z,101765.25
2019-03-31T13:05:56.107Z,101771.93
2019-03-31T13:08:25.820Z,101774.61
2019-03-31T13:10:55.524Z,101773.27
2019-03-31T13:13:25.142Z,101768.84
2019-03-31T13:15:54.872Z,101770.62
2019-03-31T13:18:27.791Z,101767.05
2019-03-31T13:20:55.835Z,101763.45
2019-03-31T13:23:25.444Z,101760.72
2019-03-31T13:25:55.158Z,101748.62
2019-03-31T13:28:27.864Z,101752.11
2019-03-31T13:30:57.493Z,101752.09
2019-03-31T13:33:27.095Z,101752.09
2019-03-31T13:35:56.749Z,101758.30
2019-03-31T13:38:26.347Z,101753.36
2019-03-31T13:40:55.994Z,101748.91
2019-03-31T13:43:25.515Z,101742.22
2019-03-31T13:45:55.172Z,101752.36
2019-03-31T13:48:24.775Z,101748.16
2019-03-31T13:50:54.403Z,101743.98
2019-03-31T13:53:24.042Z,101745.09
2019-03-31T13:55:53.695Z,101739.55
2019-03-31T13:58:23.909Z,101738.66
2019-03-31T14:00:57.136Z,101735.53
2019-03-31T14:03:25.115Z,101736.50
2019-03-31T14:05:54.742Z,101731.61
2019-03-31T14:08:26.016Z,101736.09
2019-03-31T14:10:55.871Z,101741.59
2019-03-31T14:13:25.570Z,101751.46
2019-03-31T14:15:55.318Z,101745.69
2019-03-31T14:18:24.983Z,101744.36
2019-03-31T14:20:54.602Z,101743.53
2019-03-31T14:23:24.145Z,101741.80
2019-03-31T14:25:53.784Z,101741.83
2019-03-31T14:28:23.396Z,101736.83
2019-03-31T14:30:53.020Z,101734.90
2019-03-31T14:33:22.620Z,101732.19
2019-03-31T14:35:52.246Z,101742.88
2019-03-31T14:38:21.854Z,101736.20
2019-03-31T14:40:51.494Z,101737.05
2019-03-31T14:43:21.096Z,101734.37
2019-03-31T14:45:50.749Z,101742.03
2019-03-31T14:48:20.354Z,101737.50
2019-03-31T14:50:49.915Z,101737.34
2019-03-31T14:53:19.518Z,101737.19
2019-03-31T14:55:49.196Z,101743.84
2019-03-31T14:58:18.741Z,101732.20
2019-03-31T15:00:48.377Z,101740.31
2019-03-31T15:03:18.339Z,101732.37
2019-03-31T15:05:47.992Z,101731.99
2019-03-31T15:08:17.596Z,101737.81
2019-03-31T15:10:47.235Z,101737.00
2019-03-31T15:13:16.765Z,101741.03
2019-03-31T15:15:46.312Z,101738.41
2019-03-31T15:18:15.910Z,101738.52
2019-03-31T15:20:45.535Z,101746.59
2019-03-31T15:23:15.141Z,101740.41
2019-03-31T15:25:44.773Z,101746.68
2019-03-31T15:28:14.294Z,101735.52
2019-03-31T15:30:43.848Z,101736.45
2019-03-31T15:33:13.536Z,101740.50
2019-03-31T15:35:43.335Z,101744.12
2019-03-31T15:38:13.034Z,101748.22
2019-03-31T15:40:42.637Z,101745.66
2019-03-31T15:43:12.278Z,101747.48
2019-03-31T15:45:44.863Z,101747.98
2019-03-31T15:48:14.574Z,101742.66
2019-03-31T15:50:44.178Z,101738.25
2019-03-31T15:53:13.937Z,101747.20
2019-03-31T15:55:43.537Z,101748.14
2019-03-31T15:58:13.165Z,101745.49
2019-03-31T16:00:42.738Z,101744.22
2019-03-31T16:03:12.348Z,101745.16
2019-03-31T16:05:41.940Z,101746.98
2019-03-31T16:08:11.179Z,101751.42
2019-03-31T16:10:41.039Z,101751.89
2019-03-31T16:13:10.126Z,101751.89
2019-03-31T16:15:39.120Z,101757.69
2019-03-31T16:18:08.328Z,101753.26
2019-03-31T16:20:39.794Z,101751.92
2019-03-31T16:23:08.861Z,101757.72
2019-03-31T16:25:44.287Z,101752.40
2019-03-31T16:28:13.441Z,101752.84
2019-03-31T16:30:42.709Z,101750.61
2019-03-31T16:33:11.793Z,101749.27
2019-03-31T16:35:40.920Z,101757.30
2019-03-31T16:38:10.001Z,101760.86
2019-03-31T16:40:39.066Z,101756.40
2019-03-31T16:43:08.183Z,101757.70
2019-03-31T16:45:37.282Z,101761.71
2019-03-31T16:48:06.377Z,101764.36
2019-03-31T16:50:37.013Z,101772.34
2019-03-31T16:53:06.105Z,101760.77
2019-03-31T16:55:35.160Z,101770.52
2019-03-31T16:58:04.241Z,101767.86
2019-03-31T17:00:33.308Z,101764.70
2019-03-31T17:03:02.423Z,101764.70
2019-03-31T17:05:31.594Z,101772.67
2019-03-31T17:08:00.774Z,101772.66
2019-03-31T17:10:29.835Z,101774.37
2019-03-31T17:12:58.919Z,101776.55
2019-03-31T17:15:27.986Z,101774.27
2019-03-31T17:17:57.281Z,101773.34
2019-03-31T17:20:26.355Z,101776.81
2019-03-31T17:22:55.445Z,101778.98
2019-03-31T17:25:24.506Z,101785.63
2019-03-31T17:27:53.589Z,101790.89
2019-03-31T17:30:22.653Z,101783.28
2019-03-31T17:32:51.743Z,101784.11
2019-03-31T17:35:20.840Z,101788.47
2019-03-31T17:37:49.924Z,101792.41
2019-03-31T17:40:18.989Z,101799.81
2019-03-31T17:42:48.075Z,101802.38
2019-03-31T17:45:17.478Z,101800.05
2019-03-31T17:47:46.642Z,101799.04
2019-03-31T17:50:15.736Z,101807.84
2019-03-31T17:52:44.772Z,101800.19
2019-03-31T17:55:13.851Z,101803.66
2019-03-31T17:57:43.022Z,101811.09
2019-03-31T18:00:13.283Z,101807.39
2019-03-31T18:02:42.365Z,101809.92
2019-03-31T18:05:11.436Z,101812.03
2019-03-31T18:07:40.523Z,101816.34
2019-03-31T18:10:20.914Z,101820.20
2019-03-31T18:12:40.612Z,101824.04
2019-03-31T18:15:09.908Z,101831.89
2019-03-31T18:17:38.965Z,101825.11
2019-03-31T18:20:08.030Z,101837.81
2019-03-31T18:22:37.116Z,101835.41
2019-03-31T18:25:06.796Z,101838.78
2019-03-31T18:27:35.905Z,101839.05
2019-03-31T18:30:05.806Z,101842.44
2019-03-31T18:32:34.890Z,101851.19
2019-03-31T18:35:03.956Z,101843.07
2019-03-31T18:37:32.973Z,101847.34
2019-03-31T18:40:02.032Z,101855.20
2019-03-31T18:42:31.106Z,101859.89
2019-03-31T18:45:00.382Z,101861.09
2019-03-31T18:47:29.659Z,101864.45
2019-03-31T18:49:58.714Z,101869.14
2019-03-31T18:52:27.800Z,101868.52
2019-03-31T18:55:12.130Z,101874.13
2019-03-31T18:57:49.793Z,101880.50
2019-03-31T19:00:44.119Z,101880.31
2019-03-31T19:03:35.036Z,101883.69
2019-03-31T19:06:21.945Z,101886.58
2019-03-31T19:09:08.904Z,101896.19
2019-03-31T19:11:56.028Z,101895.54
2019-03-31T19:14:32.641Z,101899.35
2019-03-31T19:17:39.041Z,101901.03
2019-03-31T19:20:27.202Z,101905.68
2019-03-31T19:23:24.176Z,101909.89
2019-03-31T19:26:15.023Z,101916.34
2019-03-31T19:28:51.537Z,101917.98
2019-03-31T19:31:39.585Z,101917.45
2019-03-31T19:34:30.284Z,101923.05
2019-03-31T19:37:18.339Z,101920.71
2019-03-31T19:40:03.804Z,101926.35
2019-03-31T19:42:50.411Z,101930.19
2019-03-31T19:45:29.109Z,101933.09
2019-03-31T19:48:26.118Z,101938.69
2019-03-31T19:51:04.054Z,101932.77
2019-03-31T19:53:50.947Z,101935.23
2019-03-31T19:56:30.519Z,101939.98
2019-03-31T19:59:09.259Z,101940.67
2019-03-31T20:01:56.372Z,101940.92
2019-03-31T20:04:36.442Z,101942.10
2019-03-31T20:07:30.674Z,101951.14
2019-03-31T20:10:27.966Z,101950.07
2019-03-31T20:13:14.815Z,101950.74
2019-03-31T20:16:02.807Z,101950.50
2019-03-31T20:18:49.635Z,101962.58
2019-03-31T20:21:32.367Z,101958.80
2019-03-31T20:24:24.019Z,101953.67
2019-03-31T20:27:12.014Z,101960.50
2019-03-31T20:29:51.859Z,101958.47
2019-03-31T20:32:52.232Z,101953.74
2019-03-31T20:35:39.297Z,101956.61
2019-03-31T20:38:13.935Z,101956.34
2019-03-31T20:41:11.210Z,101967.55
2019-03-31T20:43:51.753Z,101965.12
2019-03-31T20:46:20.835Z,101965.87
2019-03-31T20:48:49.912Z,101963.91
2019-03-31T20:51:18.974Z,101969.10
2019-03-31T20:53:48.066Z,101974.16
2019-03-31T20:56:17.059Z,101974.36
2019-03-31T20:58:46.135Z,101977.75
2019-03-31T21:01:15.195Z,101976.77
2019-03-31T21:03:44.280Z,101975.77
2019-03-31T21:06:13.363Z,101977.35
2019-03-31T21:08:42.429Z,101975.46
2019-03-31T21:11:11.427Z,101979.24
2019-03-31T21:13:40.515Z,101987.95
2019-03-31T21:16:09.568Z,101988.27
2019-03-31T21:18:38.646Z,101985.42
2019-03-31T21:21:07.707Z,101987.88
2019-03-31T21:23:36.831Z,101995.22
2019-03-31T21:26:06.293Z,101999.05
2019-03-31T21:28:35.371Z,101998.05
2019-03-31T21:31:04.437Z,101995.28
2019-03-31T21:33:33.530Z,101999.98
2019-03-31T21:36:02.593Z,101998.36
2019-03-31T21:38:31.723Z,102001.73
2019-03-31T21:41:00.746Z,102009.45
2019-03-31T21:43:29.818Z,102011.45
2019-03-31T21:45:58.923Z,102009.50
2019-03-31T21:48:27.981Z,102017.32
2019-03-31T21:50:57.059Z,102023.29
2019-03-31T21:53:26.127Z,102026.09
2019-03-31T21:55:55.374Z,102021.06
2019-03-31T21:58:24.422Z,102027.45
2019-03-31T22:00:55.434Z,102023.80
2019-03-31T22:03:24.497Z,102026.67
2019-03-31T22:05:53.596Z,102023.52
2019-03-31T22:08:22.650Z,102027.27
2019-03-31T22:10:51.656Z,102031.52
2019-03-31T22:13:20.706Z,102027.73
2019-03-31T22:15:49.791Z,102028.84
2019-03-31T22:18:18.851Z,102027.36
2019-03-31T22:20:47.935Z,102028.91
2019-03-31T22:23:16.991Z,102033.14
2019-03-31T22:25:46.078Z,102029.42
2019-03-31T22:28:15.133Z,102024.31
2019-03-31T22:30:44.222Z,102036.45
2019-03-31T22:33:13.269Z,102031.80
2019-03-31T22:35:44.000Z,102038.66
2019-03-31T22:38:13.055Z,102035.83
2019-03-31T22:40:42.142Z,102046.17
2019-03-31T22:43:11.196Z,102038.96
2019-03-31T22:45:40.273Z,102041.81
2019-03-31T22:48:09.373Z,102046.89
2019-03-31T22:50:38.448Z,102038.78
2019-03-31T22:53:07.508Z,102043.37
2019-03-31T22:55:36.594Z,102042.34
2019-03-31T22:58:05.636Z,102039.42
2019-03-31T23:00:34.729Z,102034.87
2019-03-31T23:03:03.838Z,102033.19
2019-03-31T23:05:32.921Z,102038.66
2019-03-31T23:08:01.972Z,102040.67
2019-03-31T23:10:30.976Z,102043.08
2019-03-31T23:13:00.031Z,102039.34
2019-03-31T23:15:29.110Z,102042.98
2019-03-31T23:17:58.161Z,102052.11
2019-03-31T23:20:27.233Z,102052.73
2019-03-31T23:22:56.284Z,102053.44
2019-03-31T23:25:25.390Z,102051.97
2019-03-31T23:27:54.430Z,102053.55
2019-03-31T23:30:23.512Z,102047.65
2019-03-31T23:32:52.485Z,102050.20
2019-03-31T23:35:21.620Z,102043.02
2019-03-31T23:37:50.628Z,102054.77
2019-03-31T23:40:19.713Z,102051.09
2019-03-31T23:42:48.767Z,102044.72
2019-03-31T23:45:17.844Z,102051.55
2019-03-31T23:47:46.851Z,102051.91
2019-03-31T23:50:15.929Z,102049.93
2019-03-31T23:52:44.979Z,102050.28
2019-03-31T23:55:14.061Z,102054.56
2019-03-31T23:57:43.121Z,102049.97
